createdAt,value
2022-10-07T00:00:53.716Z,53.15
2022-10-07T00:03:22.345Z,55.09
2022-10-07T00:06:16.353Z,54.74
2022-10-07T00:08:46.451Z,53.95
2022-10-07T00:11:15.914Z,53.07
2022-10-07T00:13:44.220Z,55.02
2022-10-07T00:16:31.481Z,54.26
2022-10-07T00:19:00.958Z,56.29
2022-10-07T00:21:30.318Z,56.58
2022-10-07T00:23:58.190Z,56.43
2022-10-07T00:26:28.169Z,56.54
2022-10-07T00:28:56.017Z,54.11
2022-10-07T00:31:25.217Z,55.17
2022-10-07T00:33:52.700Z,54.82
2022-10-07T00:36:25.082Z,55.31
2022-10-07T00:39:13.281Z,55.88
2022-10-07T00:41:40.054Z,54.79
2022-10-07T00:44:28.483Z,54.66
2022-10-07T00:46:56.375Z,54.27
2022-10-07T00:49:23.263Z,55.47
2022-10-07T00:51:52.019Z,54.26
2022-10-07T00:54:19.204Z,57.47
2022-10-07T00:56:47.933Z,56.80
2022-10-07T00:59:16.177Z,57.37
2022-10-07T01:01:43.138Z,57.48
2022-10-07T01:04:11.659Z,56.94
2022-10-07T01:06:39.399Z,55.14
2022-10-07T01:09:07.748Z,55.77
2022-10-07T01:11:43.214Z,54.96
2022-10-07T01:14:32.221Z,55.01
2022-10-07T01:17:09.758Z,55.63
2022-10-07T01:20:07.775Z,56.45
2022-10-07T01:22:50.289Z,55.33
2022-10-07T01:25:34.871Z,56.67
2022-10-07T01:28:08.413Z,57.50
2022-10-07T01:30:39.111Z,57.33
2022-10-07T01:33:15.409Z,54.42
2022-10-07T01:35:44.064Z,53.71
2022-10-07T01:38:12.312Z,54.90
2022-10-07T01:40:45.475Z,55.66
2022-10-07T01:43:14.911Z,56.59
2022-10-07T01:45:41.976Z,55.43
2022-10-07T01:48:09.640Z,56.07
2022-10-07T01:50:37.060Z,57.35
2022-10-07T01:53:17.555Z,58.17
2022-10-07T01:56:12.006Z,55.93
2022-10-07T01:59:11.656Z,54.76
2022-10-07T02:01:47.921Z,56.22
2022-10-07T02:04:31.307Z,56.39
2022-10-07T02:07:18.070Z,55.03
2022-10-07T02:10:12.679Z,56.70
2022-10-07T02:12:52.692Z,58.94
2022-10-07T02:15:26.083Z,58.53
2022-10-07T02:17:56.739Z,56.31
2022-10-07T02:20:26.090Z,53.56
2022-10-07T02:22:55.778Z,55.84
2022-10-07T02:25:23.661Z,57.77
2022-10-07T02:27:52.214Z,58.43
2022-10-07T02:30:20.643Z,58.46
2022-10-07T02:32:54.121Z,54.63
2022-10-07T02:35:28.255Z,56.78
2022-10-07T02:37:56.511Z,56.09
2022-10-07T02:40:23.967Z,55.98
2022-10-07T02:42:57.221Z,56.97
2022-10-07T02:45:55.373Z,52.62
2022-10-07T02:48:26.707Z,55.77
2022-10-07T02:50:58.425Z,57.00
2022-10-07T02:53:27.187Z,57.85
2022-10-07T02:55:55.646Z,57.71
2022-10-07T02:58:25.698Z,55.69
2022-10-07T03:00:58.139Z,57.45
2022-10-07T03:03:25.851Z,60.18
2022-10-07T03:05:52.895Z,58.86
2022-10-07T03:08:21.657Z,59.52
2022-10-07T03:10:48.710Z,56.84
2022-10-07T03:13:15.803Z,56.91
2022-10-07T03:15:43.389Z,58.41
2022-10-07T03:18:26.645Z,57.79
2022-10-07T03:20:55.590Z,56.80
2022-10-07T03:23:23.525Z,58.38
2022-10-07T03:25:54.600Z,56.35
2022-10-07T03:28:22.898Z,56.31
2022-10-07T03:30:50.901Z,58.00
2022-10-07T03:33:19.239Z,57.03
2022-10-07T03:35:46.233Z,58.69
2022-10-07T03:38:13.253Z,57.64
2022-10-07T03:40:40.207Z,59.76
2022-10-07T03:43:07.827Z,60.66
2022-10-07T03:45:37.529Z,57.95
2022-10-07T03:48:04.518Z,54.86
2022-10-07T03:50:31.374Z,53.86
2022-10-07T03:52:58.191Z,55.91
2022-10-07T03:55:25.063Z,54.79
2022-10-07T03:57:55.629Z,55.00
2022-10-07T04:00:26.636Z,57.28
2022-10-07T04:02:53.714Z,58.40
2022-10-07T04:05:21.387Z,57.34
2022-10-07T04:07:49.842Z,58.55
2022-10-07T04:10:18.132Z,58.34
2022-10-07T04:12:45.941Z,58.31
2022-10-07T04:15:13.863Z,55.19
2022-10-07T04:17:41.447Z,57.77
2022-10-07T04:20:09.530Z,58.19
2022-10-07T04:22:36.828Z,58.69
2022-10-07T04:25:23.781Z,59.16
2022-10-07T04:27:53.682Z,58.99
2022-10-07T04:30:21.529Z,58.70
2022-10-07T04:32:49.686Z,58.32
2022-10-07T04:35:17.745Z,55.20
2022-10-07T04:37:44.874Z,56.23
2022-10-07T04:40:11.957Z,55.70
2022-10-07T04:42:57.426Z,55.76
2022-10-07T04:45:24.334Z,56.72
2022-10-07T04:47:51.179Z,53.28
2022-10-07T04:50:18.135Z,52.70
2022-10-07T04:52:45.097Z,53.06
2022-10-07T04:55:12.641Z,54.02
2022-10-07T04:57:39.525Z,54.87
2022-10-07T05:00:07.791Z,56.29
2022-10-07T05:02:34.889Z,59.01
2022-10-07T05:05:02.149Z,59.34
2022-10-07T05:07:29.006Z,58.69
2022-10-07T05:09:55.866Z,58.31
2022-10-07T05:12:22.717Z,59.02
2022-10-07T05:14:49.577Z,58.71
2022-10-07T05:17:16.924Z,57.22
2022-10-07T05:19:43.758Z,58.41
2022-10-07T05:22:10.649Z,57.71
2022-10-07T05:24:37.501Z,58.19
2022-10-07T05:27:04.469Z,57.94
2022-10-07T05:29:31.328Z,58.62
2022-10-07T05:32:04.526Z,59.38
2022-10-07T05:34:32.183Z,61.19
2022-10-07T05:36:59.562Z,58.97
2022-10-07T05:39:26.424Z,53.94
2022-10-07T05:41:53.291Z,54.51
2022-10-07T05:44:20.190Z,56.46
2022-10-07T05:46:47.221Z,55.75
2022-10-07T05:49:14.053Z,54.78
2022-10-07T05:51:40.947Z,51.49
2022-10-07T05:54:08.581Z,49.26
2022-10-07T05:56:37.251Z,48.53
2022-10-07T05:59:04.683Z,47.54
2022-10-07T06:01:31.562Z,45.02
2022-10-07T06:03:58.662Z,43.07
2022-10-07T06:06:26.676Z,42.08
2022-10-07T06:08:53.859Z,42.38
2022-10-07T06:11:39.571Z,40.09
2022-10-07T06:14:06.643Z,39.25
2022-10-07T06:16:33.816Z,37.78
2022-10-07T06:19:01.100Z,37.22
2022-10-07T06:21:28.438Z,36.67
2022-10-07T06:23:56.807Z,36.14
2022-10-07T06:26:24.080Z,36.57
2022-10-07T06:28:51.206Z,36.39
2022-10-07T06:31:25.340Z,38.58
2022-10-07T06:33:52.980Z,41.27
2022-10-07T06:36:20.275Z,40.38
2022-10-07T06:38:48.736Z,45.32
2022-10-07T06:41:16.228Z,47.73
2022-10-07T06:43:43.431Z,45.11
2022-10-07T06:46:13.984Z,47.79
2022-10-07T06:48:41.973Z,48.51
2022-10-07T06:51:11.168Z,50.48
2022-10-07T06:53:38.078Z,50.75
2022-10-07T06:56:06.130Z,54.95
2022-10-07T06:58:33.441Z,52.90
2022-10-07T07:01:00.871Z,50.71
2022-10-07T07:03:27.875Z,49.58
2022-10-07T07:05:55.251Z,48.48
2022-10-07T07:08:23.535Z,47.84
2022-10-07T07:10:50.419Z,46.76
2022-10-07T07:13:18.264Z,47.94
2022-10-07T07:15:57.788Z,48.54
2022-10-07T07:18:25.331Z,51.13
2022-10-07T07:20:52.320Z,49.25
2022-10-07T07:23:19.402Z,48.45
2022-10-07T07:25:46.504Z,48.62
2022-10-07T07:28:16.536Z,47.79
2022-10-07T07:30:43.653Z,47.03
2022-10-07T07:33:10.634Z,47.27
2022-10-07T07:35:40.133Z,46.32
2022-10-07T07:38:07.360Z,46.40
2022-10-07T07:40:37.721Z,42.88
2022-10-07T07:43:05.674Z,44.38
2022-10-07T07:45:33.270Z,45.51
2022-10-07T07:48:00.422Z,45.91
2022-10-07T07:50:27.668Z,43.71
2022-10-07T07:52:57.339Z,42.86
2022-10-07T07:55:24.873Z,44.93
2022-10-07T07:57:51.706Z,44.74
2022-10-07T08:00:19.196Z,44.54
2022-10-07T08:02:46.866Z,45.73
2022-10-07T08:05:13.809Z,43.67
2022-10-07T08:07:40.685Z,44.94
2022-10-07T08:10:07.918Z,44.71
2022-10-07T08:12:34.737Z,43.74
2022-10-07T08:15:01.640Z,42.04
2022-10-07T08:17:28.469Z,42.36
2022-10-07T08:19:56.387Z,42.23
2022-10-07T08:22:23.292Z,41.99
2022-10-07T08:24:50.192Z,41.85
2022-10-07T08:27:17.082Z,40.52
2022-10-07T08:29:43.931Z,42.38
2022-10-07T08:32:10.871Z,42.93
2022-10-07T08:34:37.834Z,42.18
2022-10-07T08:37:04.845Z,42.45
2022-10-07T08:39:32.187Z,44.03
2022-10-07T08:42:15.310Z,44.94
2022-10-07T08:44:45.160Z,43.75
2022-10-07T08:47:28.532Z,43.53
2022-10-07T08:50:16.667Z,44.62
2022-10-07T08:52:54.520Z,42.33
2022-10-07T08:55:38.634Z,40.91
2022-10-07T08:58:19.928Z,40.41
2022-10-07T09:00:50.856Z,39.81
2022-10-07T09:03:40.865Z,43.99
2022-10-07T09:06:14.273Z,42.25
2022-10-07T09:08:57.520Z,42.20
2022-10-07T09:11:28.497Z,41.95
2022-10-07T09:14:18.767Z,43.00
2022-10-07T09:16:46.920Z,42.43
2022-10-07T09:19:30.979Z,40.96
2022-10-07T09:22:01.921Z,41.37
2022-10-07T09:24:30.576Z,41.71
2022-10-07T09:27:00.521Z,38.72
2022-10-07T09:29:29.352Z,40.78
2022-10-07T09:31:57.646Z,40.89
2022-10-07T09:34:29.977Z,38.38
2022-10-07T09:37:27.842Z,39.98
2022-10-07T09:39:58.019Z,41.14
2022-10-07T09:42:35.954Z,40.71
2022-10-07T09:45:19.193Z,41.12
2022-10-07T09:47:53.596Z,39.75
2022-10-07T09:50:31.739Z,41.43
2022-10-07T09:52:58.788Z,42.00
2022-10-07T09:55:37.571Z,41.75
2022-10-07T09:58:07.006Z,40.36
2022-10-07T10:00:43.492Z,38.99
2022-10-07T10:08:46.161Z,37.83
2022-10-07T10:11:28.949Z,41.67
2022-10-07T10:13:56.102Z,41.10
2022-10-07T10:16:29.044Z,40.52
2022-10-07T10:19:02.921Z,41.87
2022-10-07T10:21:38.184Z,40.58
2022-10-07T10:24:07.524Z,41.02
2022-10-07T10:26:43.533Z,42.62
2022-10-07T10:29:41.130Z,41.57
2022-10-07T10:32:07.924Z,39.58
2022-10-07T10:34:39.383Z,41.29
2022-10-07T10:37:20.606Z,43.69
2022-10-07T10:40:07.456Z,42.08
2022-10-07T10:42:49.528Z,42.74
2022-10-07T10:45:42.565Z,40.36
2022-10-07T10:48:50.123Z,39.03
2022-10-07T10:51:37.504Z,42.88
2022-10-07T10:54:49.019Z,40.35
2022-10-07T10:57:34.414Z,40.38
2022-10-07T11:00:15.486Z,42.91
2022-10-07T11:03:44.442Z,42.49
2022-10-07T11:06:14.237Z,41.97
2022-10-07T11:08:44.217Z,41.01
2022-10-07T11:11:22.049Z,40.81
2022-10-07T11:14:02.069Z,41.14
2022-10-07T11:16:45.584Z,42.43
2022-10-07T11:19:20.100Z,40.14
2022-10-07T11:21:50.200Z,39.81
2022-10-07T11:24:30.073Z,39.75
2022-10-07T11:27:15.077Z,41.39
2022-10-07T11:29:57.288Z,41.66
2022-10-07T11:32:49.525Z,40.79
2022-10-07T11:35:31.566Z,40.19
2022-10-07T11:38:10.476Z,42.90
2022-10-07T11:40:50.932Z,43.30
2022-10-07T11:43:25.620Z,42.14
2022-10-07T11:45:56.591Z,42.48
2022-10-07T11:48:31.462Z,40.41
2022-10-07T11:51:03.375Z,41.23
2022-10-07T11:53:35.137Z,41.92
2022-10-07T11:56:04.854Z,42.72
2022-10-07T11:58:36.246Z,42.76
2022-10-07T12:01:31.096Z,41.48
2022-10-07T12:04:25.058Z,41.48
2022-10-07T12:07:29.426Z,41.79
2022-10-07T12:10:18.270Z,43.22
2022-10-07T12:12:46.357Z,41.52
2022-10-07T12:15:31.441Z,41.62
2022-10-07T12:29:50.348Z,41.98
2022-10-07T12:32:46.838Z,41.98
2022-10-07T12:35:34.997Z,40.58
2022-10-07T12:38:30.791Z,41.34
2022-10-07T12:41:17.914Z,42.35
2022-10-07T12:43:49.029Z,43.28
2022-10-07T12:46:19.244Z,41.36
2022-10-07T12:48:51.264Z,43.55
2022-10-07T12:51:24.341Z,42.01
2022-10-07T12:53:51.658Z,41.42
2022-10-07T12:56:24.181Z,42.68
2022-10-07T12:59:30.273Z,43.47
2022-10-07T13:02:08.411Z,43.11
2022-10-07T13:04:58.503Z,42.88
2022-10-07T13:08:03.984Z,43.26
2022-10-07T13:10:48.476Z,40.96
2022-10-07T13:13:22.023Z,43.18
2022-10-07T13:15:50.412Z,43.61
2022-10-07T13:18:25.223Z,41.75
2022-10-07T13:21:02.716Z,44.61
2022-10-07T13:23:31.166Z,43.88
2022-10-07T13:26:00.105Z,42.45
2022-10-07T13:28:37.040Z,42.11
2022-10-07T13:31:23.200Z,44.13
2022-10-07T13:33:51.171Z,43.24
2022-10-07T13:36:29.334Z,41.00
2022-10-07T13:39:16.333Z,42.34
2022-10-07T13:41:45.099Z,42.02
2022-10-07T13:44:18.568Z,41.53
2022-10-07T13:47:01.637Z,41.97
2022-10-07T13:49:43.691Z,43.51
2022-10-07T13:52:38.224Z,42.89
2022-10-07T13:55:39.539Z,43.60
2022-10-07T13:58:06.846Z,42.71
2022-10-07T14:00:36.233Z,44.64
2022-10-07T14:03:13.853Z,43.40
2022-10-07T14:05:53.993Z,44.67
2022-10-07T14:08:23.432Z,43.12
2022-10-07T14:11:03.604Z,45.25
2022-10-07T14:13:31.228Z,44.39
2022-10-07T14:15:58.970Z,44.21
2022-10-07T14:18:27.761Z,45.98
2022-10-07T14:21:09.109Z,43.93
2022-10-07T14:23:37.936Z,43.38
2022-10-07T14:26:19.184Z,45.39
2022-10-07T14:28:46.189Z,45.83
2022-10-07T14:31:34.517Z,44.44
2022-10-07T14:34:33.885Z,45.93
2022-10-07T14:37:08.909Z,44.04
2022-10-07T14:39:49.385Z,45.84
2022-10-07T14:42:27.665Z,46.37
2022-10-07T14:44:56.181Z,45.73
2022-10-07T14:47:25.298Z,44.67
2022-10-07T14:49:53.359Z,45.90
2022-10-07T14:52:30.044Z,46.38
2022-10-07T14:55:01.935Z,44.57
2022-10-07T14:57:28.803Z,43.70
2022-10-07T14:59:56.381Z,43.53
2022-10-07T15:02:23.219Z,46.77
2022-10-07T15:04:50.073Z,45.17
2022-10-07T15:07:17.239Z,44.39
2022-10-07T15:09:45.443Z,42.62
2022-10-07T15:12:13.964Z,43.35
2022-10-07T15:14:41.283Z,45.64
2022-10-07T15:17:09.278Z,43.92
2022-10-07T15:19:36.172Z,44.90
2022-10-07T15:22:03.080Z,45.23
2022-10-07T15:24:31.985Z,48.05
2022-10-07T15:26:59.558Z,44.04
2022-10-07T15:29:26.400Z,45.98
2022-10-07T15:31:53.899Z,44.71
2022-10-07T15:34:20.876Z,45.38
2022-10-07T15:36:48.824Z,46.51
2022-10-07T15:39:15.660Z,46.47
2022-10-07T15:41:43.902Z,45.45
2022-10-07T15:44:16.309Z,47.30
2022-10-07T15:46:44.226Z,48.35
2022-10-07T15:49:11.204Z,45.48
2022-10-07T15:51:38.087Z,44.83
2022-10-07T15:54:06.106Z,45.55
2022-10-07T15:56:33.561Z,44.37
2022-10-07T15:59:02.008Z,44.57
2022-10-07T16:01:31.931Z,44.58
2022-10-07T16:04:00.612Z,43.74
2022-10-07T16:06:32.488Z,43.11
2022-10-07T16:09:00.175Z,43.99
2022-10-07T16:11:28.289Z,43.77
2022-10-07T16:13:55.283Z,42.30
2022-10-07T16:16:24.435Z,43.13
2022-10-07T16:18:52.898Z,41.87
2022-10-07T16:21:23.877Z,43.13
2022-10-07T16:23:52.194Z,43.11
2022-10-07T16:26:21.577Z,42.88
2022-10-07T16:29:08.626Z,44.06
2022-10-07T16:31:38.170Z,45.65
2022-10-07T16:34:05.078Z,46.24
2022-10-07T16:36:32.158Z,46.12
2022-10-07T16:39:03.493Z,45.15
2022-10-07T16:41:31.853Z,44.93
2022-10-07T16:43:59.923Z,45.04
2022-10-07T16:46:27.053Z,45.88
2022-10-07T16:48:54.489Z,46.57
2022-10-07T16:51:26.904Z,47.57
2022-10-07T16:53:55.691Z,45.26
2022-10-07T16:56:23.023Z,44.95
2022-10-07T16:58:56.309Z,46.14
2022-10-07T17:01:23.607Z,47.88
2022-10-07T17:03:51.315Z,47.08
2022-10-07T17:06:20.039Z,46.55
2022-10-07T17:08:48.389Z,48.22
2022-10-07T17:11:29.977Z,49.19
2022-10-07T17:14:17.168Z,48.35
2022-10-07T17:16:45.904Z,49.99
2022-10-07T17:19:17.864Z,51.27
2022-10-07T17:21:46.478Z,50.99
2022-10-07T17:24:14.876Z,50.60
2022-10-07T17:26:42.218Z,51.61
2022-10-07T17:29:12.054Z,52.11
2022-10-07T17:31:40.858Z,51.71
2022-10-07T17:34:07.815Z,52.26
2022-10-07T17:36:35.174Z,52.81
2022-10-07T17:39:02.541Z,52.27
2022-10-07T17:41:31.800Z,54.29
2022-10-07T17:44:00.338Z,53.19
2022-10-07T17:46:29.250Z,51.90
2022-10-07T17:48:57.833Z,52.44
2022-10-07T17:51:28.220Z,54.23
2022-10-07T17:53:56.363Z,52.83
2022-10-07T17:56:23.235Z,51.94
2022-10-07T17:58:50.149Z,51.80
2022-10-07T18:01:27.132Z,52.04
2022-10-07T18:04:02.290Z,51.60
2022-10-07T18:06:31.574Z,51.02
2022-10-07T18:09:04.592Z,50.87
2022-10-07T18:11:50.528Z,52.66
2022-10-07T18:14:36.118Z,52.65
2022-10-07T18:17:03.807Z,50.85
2022-10-07T18:19:30.658Z,51.71
2022-10-07T18:21:57.559Z,51.29
2022-10-07T18:24:28.019Z,49.64
2022-10-07T18:26:58.552Z,50.83
2022-10-07T18:29:30.702Z,51.60
2022-10-07T18:31:57.925Z,51.66
2022-10-07T18:34:25.183Z,50.12
2022-10-07T18:36:56.193Z,50.95
2022-10-07T18:39:30.034Z,51.32
2022-10-07T18:41:58.131Z,51.67
2022-10-07T18:44:25.546Z,51.51
2022-10-07T18:46:52.737Z,52.76
2022-10-07T18:49:19.592Z,51.49
2022-10-07T18:51:47.397Z,54.58
2022-10-07T18:54:14.357Z,54.89
2022-10-07T18:56:41.748Z,54.53
2022-10-07T18:59:09.951Z,54.77
2022-10-07T19:01:37.864Z,57.23
2022-10-07T19:04:06.407Z,56.49
2022-10-07T19:06:35.587Z,54.80
2022-10-07T19:09:06.799Z,53.42
2022-10-07T19:11:33.970Z,53.16
2022-10-07T19:14:01.387Z,54.68
2022-10-07T19:16:35.153Z,54.87
2022-10-07T19:19:12.168Z,54.08
2022-10-07T19:21:39.606Z,53.92
2022-10-07T19:24:06.904Z,53.26
2022-10-07T19:26:38.725Z,52.40
2022-10-07T19:29:06.909Z,53.19
2022-10-07T19:31:36.241Z,54.88
2022-10-07T19:34:11.330Z,54.27
2022-10-07T19:36:40.345Z,55.27
2022-10-07T19:39:07.712Z,55.89
2022-10-07T19:41:35.423Z,55.21
2022-10-07T19:44:03.150Z,53.49
2022-10-07T19:46:31.884Z,54.92
2022-10-07T19:49:00.066Z,57.42
2022-10-07T19:51:28.692Z,54.46
2022-10-07T19:53:57.421Z,57.17
2022-10-07T19:56:29.702Z,54.72
2022-10-07T19:58:59.093Z,55.71
2022-10-07T20:01:28.859Z,56.66
2022-10-07T20:04:03.639Z,55.47
2022-10-07T20:06:30.724Z,56.61
2022-10-07T20:08:58.037Z,57.73
2022-10-07T20:11:25.730Z,57.46
2022-10-07T20:13:54.460Z,57.18
2022-10-07T20:16:24.388Z,53.96
2022-10-07T20:18:58.597Z,54.82
2022-10-07T20:21:25.473Z,55.65
2022-10-07T20:23:53.983Z,55.82
2022-10-07T20:26:28.922Z,55.05
2022-10-07T20:29:00.240Z,55.06
2022-10-07T20:31:32.532Z,55.83
2022-10-07T20:34:00.358Z,53.29
2022-10-07T20:36:29.404Z,54.59
2022-10-07T20:39:33.749Z,56.28
2022-10-07T20:42:19.583Z,56.55
2022-10-07T20:44:48.423Z,56.66
2022-10-07T20:47:15.350Z,57.62
2022-10-07T20:49:42.482Z,54.78
2022-10-07T20:52:17.431Z,53.42
2022-10-07T20:54:45.294Z,55.08
2022-10-07T20:57:13.908Z,53.88
2022-10-07T20:59:40.765Z,53.40
2022-10-07T21:02:09.763Z,55.61
2022-10-07T21:04:36.791Z,55.46
2022-10-07T21:07:03.803Z,55.91
2022-10-07T21:09:36.573Z,57.92
2022-10-07T21:12:07.543Z,60.02
2022-10-07T21:14:37.006Z,58.74
2022-10-07T21:17:05.044Z,60.07
2022-10-07T21:19:32.826Z,59.40
2022-10-07T21:21:59.710Z,59.29
2022-10-07T21:24:26.544Z,59.18
2022-10-07T21:26:53.398Z,57.80
2022-10-07T21:29:20.306Z,60.01
2022-10-07T21:31:47.189Z,61.42
2022-10-07T21:34:14.057Z,61.32
2022-10-07T21:36:50.324Z,60.44
2022-10-07T21:39:19.930Z,60.58
2022-10-07T21:41:48.196Z,59.42
2022-10-07T21:44:15.216Z,60.90
2022-10-07T21:46:47.945Z,61.47
2022-10-07T21:49:15.600Z,60.89
2022-10-07T21:51:43.032Z,60.36
2022-10-07T21:54:16.397Z,57.76
2022-10-07T21:56:46.306Z,58.11
2022-10-07T21:59:13.841Z,59.27
2022-10-07T22:01:41.972Z,59.04
2022-10-07T22:04:14.902Z,58.46
2022-10-07T22:07:00.181Z,55.78
2022-10-07T22:09:27.038Z,54.86
2022-10-07T22:11:53.848Z,55.92
2022-10-07T22:14:20.828Z,52.93
2022-10-07T22:16:49.935Z,54.28
2022-10-07T22:19:17.804Z,55.00
2022-10-07T22:21:45.933Z,53.24
2022-10-07T22:24:14.173Z,53.89
2022-10-07T22:26:45.980Z,53.94
2022-10-07T22:29:14.340Z,53.52
2022-10-07T22:31:42.046Z,55.74
2022-10-07T22:34:09.173Z,58.82
2022-10-07T22:36:37.021Z,59.07
2022-10-07T22:39:04.144Z,58.88
2022-10-07T22:41:31.100Z,58.24
2022-10-07T22:43:59.242Z,57.93
2022-10-07T22:46:28.056Z,57.14
2022-10-07T22:48:58.481Z,55.72
2022-10-07T22:51:28.703Z,56.10
2022-10-07T22:53:56.284Z,54.19
2022-10-07T22:56:24.729Z,53.47
2022-10-07T22:58:59.910Z,56.34
2022-10-07T23:01:30.408Z,56.38
2022-10-07T23:04:03.485Z,56.09
2022-10-07T23:06:34.694Z,54.49
2022-10-07T23:09:02.561Z,55.34
2022-10-07T23:11:30.034Z,54.56
2022-10-07T23:13:57.104Z,54.37
2022-10-07T23:16:27.326Z,56.93
2022-10-07T23:18:54.232Z,57.55
2022-10-07T23:21:26.260Z,57.21
2022-10-07T23:23:56.813Z,57.52
2022-10-07T23:26:26.359Z,57.79
2022-10-07T23:28:55.573Z,56.43
2022-10-07T23:31:23.729Z,59.73
2022-10-07T23:33:52.103Z,60.98
2022-10-07T23:36:20.306Z,60.74
2022-10-07T23:38:48.577Z,60.17
2022-10-07T23:41:23.372Z,59.37
2022-10-07T23:43:54.834Z,56.27
2022-10-07T23:46:23.261Z,54.67
2022-10-07T23:48:50.339Z,54.99
2022-10-07T23:51:19.452Z,53.39
2022-10-07T23:53:47.208Z,53.24
2022-10-07T23:56:14.427Z,55.56
2022-10-07T23:58:41.725Z,58.26
